Time;durP1;ratioP1;P1;durP2;ratioP2;P2;SDS_P1;SDS_P2;PMS_P1;PMS_P2;Temp;Humidity;BMP_temperature;BMP_pressure;BME280_temperature;BME280_humidity;BME280_pressure;Samples;Min_cycle;Max_cycle;Signal;HPM_P1;HPM_P2
2022/05/31 00:23:25;;;;;;;;;13.67;12.00;;;;;16.51;72.90;100197.47;5999371;23;47012;-95
2022/05/31 00:25:50;;;;;;;;;13.67;11.33;;;;;16.48;72.47;100200.06;5050009;28;45519;-94
2022/05/31 00:28:16;;;;;;;;;13.67;12.33;;;;;16.54;73.02;100199.28;5070074;28;45683;-94
2022/05/31 00:30:41;;;;;;;;;17.67;14.00;;;;;16.53;72.79;100203.66;5058307;28;45350;-94
2022/05/31 00:33:10;;;;;;;;;10.33;10.33;;;;;16.57;73.20;100201.94;5057912;27;46753;-94
2022/05/31 00:35:40;;;;;;;;;13.67;11.67;;;;;16.49;72.96;100199.19;5057691;28;45443;-94
2022/05/31 00:38:08;;;;;;;;;7.33;7.33;;;;;16.50;73.39;100185.09;5068251;28;45495;-94
2022/05/31 00:40:35;;;;;;;;;10.00;10.00;;;;;16.53;73.53;100193.06;5068871;27;45465;-94
2022/05/31 00:43:05;;;;;;;;;11.00;9.00;;;;;16.55;73.28;100206.31;5066536;28;47361;-94
2022/05/31 00:45:43;;;;;;;;;9.67;8.33;;;;;16.58;73.25;100200.19;5057216;28;46237;-95
2022/05/31 00:48:17;;;;;;;;;6.33;6.33;;;;;16.48;73.45;100183.28;5045551;27;45321;-95
2022/05/31 00:50:57;;;;;;;;;7.00;5.67;;;;;16.48;73.51;100189.47;5062514;28;45494;-94
2022/05/31 00:53:28;;;;;;;;;6.67;6.67;;;;;16.57;73.32;100209.00;5084889;28;46942;-94
2022/05/31 00:55:56;;;;;;;;;10.67;9.67;;;;;16.44;73.32;100185.00;5065401;28;44829;-94
2022/05/31 00:58:31;;;;;;;;;6.00;5.00;;;;;16.39;73.47;100177.00;5058407;27;44851;-95
2022/05/31 01:01:02;;;;;;;;;6.00;6.00;;;;;16.45;73.65;100178.84;5083846;27;44800;-95
2022/05/31 01:03:28;;;;;;;;;6.00;5.00;;;;;16.48;73.16;100191.22;5066860;28;47148;-95
2022/05/31 01:05:56;;;;;;;;;3.33;3.33;;;;;16.49;73.59;100196.53;5069682;28;45381;-95
2022/05/31 01:08:22;;;;;;;;;7.00;5.00;;;;;16.50;73.68;100200.97;5068829;28;45539;-95
2022/05/31 01:10:48;;;;;;;;;4.33;3.00;;;;;16.42;73.92;100174.41;5048566;28;45444;-95
2022/05/31 01:13:16;;;;;;;;;4.00;4.00;;;;;16.49;73.53;100195.69;5073821;27;47138;-94
2022/05/31 01:15:44;;;;;;;;;3.00;3.00;;;;;16.47;73.44;100193.00;5055450;28;45327;-95
2022/05/31 01:18:10;;;;;;;;;2.00;2.00;;;;;16.40;73.37;100176.16;5073498;28;45396;-95
2022/05/31 01:20:35;;;;;;;;;6.00;4.00;;;;;16.40;73.22;100183.19;5071014;28;45423;-95
2022/05/31 01:23:08;;;;;;;;;4.67;3.33;;;;;16.46;73.40;100195.63;5080618;27;45614;-94
2022/05/31 01:25:58;;;;;;;;;2.33;2.33;;;;;16.49;73.40;100211.56;5052662;28;45834;-95
2022/05/31 01:29:01;;;;;;;;;3.33;3.33;;;;;16.44;73.63;100198.25;5040148;28;45599;-95
2022/05/31 01:31:46;;;;;;;;;2.33;2.33;;;;;16.46;73.42;100209.78;5048049;28;45801;-95
2022/05/31 01:34:12;;;;;;;;;4.00;3.00;;;;;16.45;73.60;100201.78;5045481;28;47125;-96
2022/05/31 01:36:55;;;;;;;;;3.00;2.00;;;;;16.30;73.77;100179.53;5056460;28;45705;-95
2022/05/31 01:39:33;;;;;;;;;3.33;2.00;;;;;16.36;73.76;100187.59;5056976;28;45728;-94
2022/05/31 01:42:16;;;;;;;;;3.00;2.67;;;;;16.35;74.11;100180.50;5056585;28;45591;-94
2022/05/31 01:44:49;;;;;;;;;2.00;2.00;;;;;16.22;74.04;100160.91;5054315;28;47397;-95
2022/05/31 01:47:20;;;;;;;;;3.00;3.00;;;;;16.19;73.99;100164.41;5061063;28;45397;-95
2022/05/31 01:49:52;;;;;;;;;5.00;3.33;;;;;16.20;74.21;100173.25;5065312;28;45369;-94
2022/05/31 01:52:19;;;;;;;;;3.33;2.00;;;;;16.29;74.14;100183.94;5083703;27;45290;-95
2022/05/31 01:54:46;;;;;;;;;4.33;3.33;;;;;16.28;74.46;100184.84;5077448;28;47203;-94
2022/05/31 01:57:15;;;;;;;;;3.00;2.00;;;;;16.26;74.80;100169.81;5080824;28;45371;-94
2022/05/31 01:59:44;;;;;;;;;3.67;2.33;;;;;16.17;74.71;100146.72;5076997;28;45443;-94
2022/05/31 02:02:15;;;;;;;;;5.33;3.00;;;;;16.21;75.17;100153.81;5058540;28;46669;-95
2022/05/31 02:04:42;;;;;;;;;3.00;3.00;;;;;16.15;75.22;100148.47;5052304;28;48329;-94
2022/05/31 02:07:19;;;;;;;;;2.67;1.00;;;;;16.19;75.25;100156.47;5054431;28;45416;-94
2022/05/31 02:09:47;;;;;;;;;2.00;2.00;;;;;16.26;75.31;100164.50;5068538;28;46941;-95
2022/05/31 02:12:14;;;;;;;;;3.33;3.00;;;;;16.26;75.86;100161.84;5053619;28;45582;-94
2022/05/31 02:14:41;;;;;;;;;2.33;2.33;;;;;16.26;75.70;100168.00;5057361;28;48065;-94
2022/05/31 02:17:06;;;;;;;;;3.00;3.00;;;;;16.14;75.66;100144.94;5075613;28;45366;-95
2022/05/31 02:19:32;;;;;;;;;3.67;2.33;;;;;16.17;75.86;100150.28;5059121;28;45585;-94
2022/05/31 02:22:00;;;;;;;;;1.00;1.00;;;;;16.16;76.02;100155.53;5073414;27;45545;-94
2022/05/31 02:24:26;;;;;;;;;2.00;2.00;;;;;16.14;76.74;100146.69;5066351;28;47277;-95
2022/05/31 02:26:53;;;;;;;;;1.67;1.67;;;;;16.18;76.51;100151.16;5058102;28;45419;-94
2022/05/31 02:29:21;;;;;;;;;1.00;1.00;;;;;16.10;76.39;100140.47;5083972;27;45599;-94
2022/05/31 02:31:47;;;;;;;;;3.00;3.00;;;;;16.10;76.30;100144.88;5068083;28;45308;-94
2022/05/31 02:34:14;;;;;;;;;1.67;1.00;;;;;16.16;76.32;100150.22;5066943;28;45742;-95
2022/05/31 02:36:39;;;;;;;;;4.00;3.00;;;;;16.12;77.04;100149.31;5058163;28;45843;-94
2022/05/31 02:39:05;;;;;;;;;3.33;1.33;;;;;16.03;76.93;100122.72;5039417;28;45552;-94
2022/05/31 02:41:31;;;;;;;;;1.67;1.67;;;;;16.07;76.52;100141.31;5041350;28;45466;-95
2022/05/31 02:43:58;;;;;;;;;3.00;3.00;;;;;16.06;77.01;100138.63;5070900;27;46895;-95
2022/05/31 02:46:24;;;;;;;;;2.00;2.00;;;;;16.05;77.13;100134.25;5082613;27;45505;-94
2022/05/31 02:48:49;;;;;;;;;3.00;2.00;;;;;16.04;77.08;100143.91;5064247;28;45233;-95
2022/05/31 02:51:15;;;;;;;;;1.00;1.00;;;;;16.06;77.37;100142.19;5060805;28;45251;-94
2022/05/31 02:53:41;;;;;;;;;3.00;3.00;;;;;15.96;77.28;100129.66;5066065;28;48049;-95
2022/05/31 02:56:08;;;;;;;;;2.00;2.00;;;;;15.96;77.46;100134.97;5067732;28;45360;-94
2022/05/31 02:58:33;;;;;;;;;3.00;1.67;;;;;15.93;77.19;100133.16;5076039;27;45634;-95
2022/05/31 03:00:59;;;;;;;;;2.00;2.00;;;;;15.93;77.31;100143.75;5059110;28;45484;-95
2022/05/31 03:03:25;;;;;;;;;2.00;2.00;;;;;15.92;77.24;100143.75;5054360;28;46840;-94
2022/05/31 03:05:51;;;;;;;;;2.33;2.33;;;;;15.99;77.43;100161.47;5072191;28;45624;-95
2022/05/31 03:08:17;;;;;;;;;2.00;2.00;;;;;15.91;77.41;100149.88;5058639;28;45491;-94
2022/05/31 03:10:50;;;;;;;;;2.00;2.00;;;;;15.82;77.50;100132.13;5053969;28;45543;-94
2022/05/31 03:13:20;;;;;;;;;2.00;2.00;;;;;15.86;77.82;100134.84;5071713;28;47126;-94
2022/05/31 03:15:47;;;;;;;;;2.00;2.00;;;;;15.91;78.00;100137.53;5073323;28;45556;-94
2022/05/31 03:18:17;;;;;;;;;3.67;2.00;;;;;15.89;77.99;100139.28;5094911;27;45292;-94
2022/05/31 03:20:48;;;;;;;;;2.00;2.00;;;;;15.87;77.84;100127.81;5055206;28;45687;-94
2022/05/31 03:23:25;;;;;;;;;2.33;2.33;;;;;15.84;77.98;100125.09;5047743;28;51639;-94
2022/05/31 03:25:53;;;;;;;;;4.00;3.00;;;;;15.88;78.13;100133.97;5055298;28;45395;-94
2022/05/31 03:28:20;;;;;;;;;2.00;2.00;;;;;15.77;78.29;100124.13;5071303;28;45333;-94
2022/05/31 03:30:46;;;;;;;;;2.00;2.00;;;;;15.67;78.21;100109.88;5072200;28;45563;-94
2022/05/31 03:33:12;;;;;;;;;3.00;3.00;;;;;15.72;78.99;100131.13;5037585;28;47998;-94
2022/05/31 03:35:38;;;;;;;;;3.00;3.00;;;;;15.61;78.86;100118.63;5072411;27;45666;-94
2022/05/31 03:38:04;;;;;;;;;3.00;3.00;;;;;15.63;79.03;100129.22;5073999;28;45991;-93
2022/05/31 03:43:14;;;;;;;;;3.00;3.00;;;;;15.59;78.91;100117.69;5092661;27;45676;-94
2022/05/31 03:45:41;;;;;;;;;3.00;3.00;;;;;15.64;79.06;100121.31;5052323;28;45602;-94
2022/05/31 03:48:09;;;;;;;;;4.00;3.33;;;;;15.69;79.26;100131.97;5066900;28;45450;-95
2022/05/31 03:50:35;;;;;;;;;3.00;2.33;;;;;15.67;79.53;100128.38;5064152;28;46140;-94
2022/05/31 03:53:01;;;;;;;;;5.00;5.00;;;;;15.58;79.94;100109.75;5067594;28;45431;-93
2022/05/31 03:55:27;;;;;;;;;2.67;2.67;;;;;15.67;80.43;100125.75;5057630;28;45398;-94
2022/05/31 03:57:53;;;;;;;;;4.67;4.67;;;;;15.64;80.67;100116.00;5085177;22;45205;-93
2022/05/31 04:00:20;;;;;;;;;7.00;3.67;;;;;15.67;80.83;100123.09;5089235;27;45407;-93
2022/05/31 04:02:48;;;;;;;;;5.00;4.67;;;;;15.58;81.08;100113.28;5072483;27;46931;-94
2022/05/31 04:05:13;;;;;;;;;8.67;5.00;;;;;15.64;81.23;100123.09;5056542;28;45788;-94
2022/05/31 04:07:39;;;;;;;;;6.33;6.00;;;;;15.60;81.33;100118.59;5051539;28;45549;-94
2022/05/31 04:10:10;;;;;;;;;5.67;5.67;;;;;15.60;81.82;100119.50;5064438;28;45453;-95
2022/05/31 04:12:38;;;;;;;;;5.00;5.00;;;;;15.58;82.46;100109.75;5034773;27;47282;-95
2022/05/31 04:15:05;;;;;;;;;3.00;3.00;;;;;15.56;82.23;100111.50;5059015;28;45349;-94
2022/05/31 04:17:30;;;;;;;;;4.33;4.33;;;;;15.52;82.36;100106.16;5071023;28;45435;-93
2022/05/31 04:19:58;;;;;;;;;4.33;4.33;;;;;15.60;82.43;100114.19;5065867;28;45274;-94
2022/05/31 04:22:23;;;;;;;;;6.00;5.00;;;;;15.62;83.08;100115.09;5057808;28;45416;-93
2022/05/31 04:24:53;;;;;;;;;4.67;4.00;;;;;15.60;83.46;100110.66;5071089;28;45628;-92
2022/05/31 04:27:19;;;;;;;;;3.00;3.00;;;;;15.59;83.44;100104.47;5069012;28;45402;-94
2022/05/31 04:29:45;;;;;;;;;5.67;5.67;;;;;15.62;83.52;100108.91;5071985;27;45510;-94
2022/05/31 04:32:14;;;;;;;;;4.33;4.33;;;;;15.60;83.43;100108.00;5087879;28;47250;-93
2022/05/31 04:34:39;;;;;;;;;6.00;5.00;;;;;15.62;83.63;100108.91;5073155;28;47497;-93
2022/05/31 04:37:06;;;;;;;;;6.00;6.00;;;;;15.57;83.85;100098.28;5068204;28;45549;-93
2022/05/31 04:39:33;;;;;;;;;4.00;4.00;;;;;15.61;83.96;100105.41;5083858;28;45234;-93
2022/05/31 04:41:58;;;;;;;;;4.33;3.00;;;;;15.63;83.42;100118.66;5071254;28;47474;-94
2022/05/31 04:44:24;;;;;;;;;2.67;2.00;;;;;15.59;83.54;100098.31;5083987;28;44806;-94
2022/05/31 04:46:49;;;;;;;;;4.00;4.00;;;;;15.65;83.67;100103.69;5082115;28;44778;-93
2022/05/31 04:49:15;;;;;;;;;5.33;5.33;;;;;15.71;84.07;100117.00;5097626;27;45259;-92
2022/05/31 04:51:43;;;;;;;;;3.67;3.67;;;;;15.72;83.95;100120.53;5081178;27;48380;-93
2022/05/31 04:54:09;;;;;;;;;4.67;4.00;;;;;15.68;83.93;100114.31;5054240;28;45377;-93
2022/05/31 04:56:35;;;;;;;;;5.33;4.00;;;;;15.74;84.18;100116.16;5082752;28;45462;-93
2022/05/31 04:59:04;;;;;;;;;5.00;5.00;;;;;15.66;84.47;100094.88;5061099;28;45534;-93
2022/05/31 05:01:29;;;;;;;;;3.00;3.00;;;;;15.76;84.61;100111.78;5029746;28;47112;-93
2022/05/31 05:03:55;;;;;;;;;5.00;3.00;;;;;15.78;84.75;100117.06;5058118;28;45326;-94
2022/05/31 05:06:23;;;;;;;;;4.67;4.00;;;;;15.77;84.95;100121.47;5069584;28;45365;-93
2022/05/31 05:08:48;;;;;;;;;4.67;4.67;;;;;15.75;84.40;100124.09;5087406;27;45369;-92
2022/05/31 05:11:21;;;;;;;;;4.33;4.00;;;;;15.84;85.18;100123.34;5053970;28;47353;-93
2022/05/31 05:13:47;;;;;;;;;4.33;3.00;;;;;15.90;85.29;100130.47;5061866;28;45901;-93
2022/05/31 05:16:15;;;;;;;;;4.00;4.00;;;;;15.91;85.17;100128.72;5072237;27;45305;-93
2022/05/31 05:18:41;;;;;;;;;7.33;4.67;;;;;15.89;84.95;100136.66;5090792;27;45499;-92
2022/05/31 05:21:12;;;;;;;;;3.67;3.67;;;;;15.84;84.73;100126.00;5074438;27;47451;-93
2022/05/31 05:23:39;;;;;;;;;5.00;4.00;;;;;15.87;85.24;100125.16;5063298;28;45416;-93
2022/05/31 05:26:05;;;;;;;;;6.00;6.00;;;;;15.95;85.35;100139.34;5059498;28;45422;-92
2022/05/31 05:31:26;;;;;;;;;4.00;4.00;;;;;15.93;85.60;100121.69;5087306;28;45075;-93
2022/05/31 05:33:55;;;;;;;;;3.00;3.00;;;;;16.06;85.69;100139.53;5084441;28;45528;-93
2022/05/31 05:36:21;;;;;;;;;5.33;3.33;;;;;16.01;85.67;100127.06;5091441;28;45447;-95
2022/05/31 05:38:50;;;;;;;;;5.00;4.00;;;;;16.16;85.60;100142.28;5053246;28;45377;-93
2022/05/31 05:41:18;;;;;;;;;4.67;4.67;;;;;16.15;85.25;100132.59;5050486;28;47073;-92
2022/05/31 05:43:44;;;;;;;;;5.33;4.67;;;;;16.17;85.07;100126.44;5068564;28;45240;-93
2022/05/31 05:46:14;;;;;;;;;5.00;5.00;;;;;16.29;85.07;100138.94;5089974;28;45458;-93
2022/05/31 05:48:40;;;;;;;;;5.00;5.00;;;;;16.41;85.08;100145.25;5055049;28;45844;-93
2022/05/31 05:51:21;;;;;;;;;3.00;3.00;;;;;16.53;84.93;100161.28;5073801;28;48304;-93
2022/05/31 06:25:28;;;;;;;;;6.00;5.00;;;;;16.61;84.25;100174.63;5460506;22;45856;-91
2022/05/31 06:27:54;;;;;;;;;6.00;5.00;;;;;16.68;84.92;100170.25;5069362;28;49033;-92
2022/05/31 06:30:19;;;;;;;;;3.67;3.67;;;;;16.86;84.90;100166.03;5091616;28;45503;-92
2022/05/31 06:32:44;;;;;;;;;4.33;4.33;;;;;17.08;85.41;100163.59;5100484;27;45317;-92
2022/05/31 06:35:10;;;;;;;;;5.00;3.67;;;;;17.32;85.08;100159.38;5090882;28;45909;-92
2022/05/31 06:37:36;;;;;;;;;5.00;4.67;;;;;17.52;85.12;100156.88;5087789;28;45471;-93
2022/05/31 06:40:02;;;;;;;;;5.33;4.00;;;;;17.73;85.12;100147.28;5085021;28;44788;-91
2022/05/31 06:42:31;;;;;;;;;6.33;5.33;;;;;17.95;85.12;100149.19;5053633;28;44789;-91
2022/05/31 06:44:57;;;;;;;;;7.00;4.00;;;;;18.04;84.71;100145.69;5075934;28;45380;-91
2022/05/31 06:47:22;;;;;;;;;5.33;4.67;;;;;18.08;84.74;100134.19;5061582;28;44892;-92
2022/05/31 06:49:48;;;;;;;;;4.00;4.00;;;;;18.12;84.56;100127.09;5085746;28;45401;-92
2022/05/31 06:57:46;;;;;;;;;5.33;5.00;;;;;18.12;82.55;100105.88;5092606;28;44718;-92
2022/05/31 07:00:15;;;;;;;;;5.67;4.67;;;;;18.05;82.04;100103.22;5064640;28;45569;-93
2022/05/31 07:02:41;;;;;;;;;4.67;4.00;;;;;17.94;81.99;100099.59;5084626;28;45422;-91
2022/05/31 07:05:07;;;;;;;;;4.00;4.00;;;;;18.01;82.30;100095.22;5089791;28;45398;-90
2022/05/31 07:07:34;;;;;;;;;4.67;4.00;;;;;18.17;82.17;100104.13;5067652;28;45294;-92
2022/05/31 07:10:00;;;;;;;;;4.67;4.67;;;;;18.29;82.48;100093.59;5044313;28;45440;-92
2022/05/31 07:12:26;;;;;;;;;5.00;4.00;;;;;18.44;82.01;100094.50;5042152;28;45129;-88
2022/05/31 07:14:51;;;;;;;;;3.67;3.67;;;;;18.49;81.27;100100.72;5068713;28;46215;-90
2022/05/31 07:17:16;;;;;;;;;4.00;3.33;;;;;18.58;81.16;100115.78;5081237;28;45415;-88
2022/05/31 07:19:42;;;;;;;;;3.33;3.00;;;;;18.69;81.01;100129.09;5079183;28;48114;-89
2022/05/31 07:22:07;;;;;;;;;3.00;3.00;;;;;18.76;81.23;100135.31;5078046;28;45489;-88
2022/05/31 07:24:32;;;;;;;;;4.67;3.00;;;;;18.89;80.56;100146.81;5072866;28;46730;-88
2022/05/31 07:26:58;;;;;;;;;2.33;2.00;;;;;19.03;80.65;100151.28;5080171;28;45453;-92
2022/05/31 07:29:28;;;;;;;;;3.00;3.00;;;;;19.25;80.53;100167.31;5077554;28;45340;-92
2022/05/31 07:31:53;;;;;;;;;3.67;3.67;;;;;19.34;80.61;100166.38;5076867;28;45691;-90
2022/05/31 07:34:19;;;;;;;;;5.00;4.00;;;;;19.37;79.99;100185.91;5077051;28;45835;-89
2022/05/31 07:36:45;;;;;;;;;2.67;2.33;;;;;19.36;79.74;100207.19;5070567;28;45237;-93
2022/05/31 07:39:15;;;;;;;;;5.67;4.00;;;;;19.43;79.53;100209.84;5070223;28;45273;-92
2022/05/31 07:41:41;;;;;;;;;3.67;3.67;;;;;19.53;79.55;100223.19;5072700;28;44916;-91
2022/05/31 07:44:07;;;;;;;;;3.67;3.00;;;;;19.67;79.47;100225.81;5079280;28;45276;-95
2022/05/31 07:46:32;;;;;;;;;3.33;3.00;;;;;19.84;78.72;100252.41;5082801;28;46229;-96
2022/05/31 07:48:59;;;;;;;;;3.00;3.00;;;;;19.97;78.71;100252.41;5099159;27;45272;-96
2022/05/31 07:51:26;;;;;;;;;3.33;3.00;;;;;20.08;78.48;100282.56;5116817;27;45242;-96
2022/05/31 07:53:51;;;;;;;;;2.67;2.67;;;;;20.28;78.77;100280.81;5095015;27;45340;-96
2022/05/31 07:56:18;;;;;;;;;3.00;3.00;;;;;20.45;78.27;100296.75;5080268;28;45446;-96
2022/05/31 07:58:45;;;;;;;;;2.67;2.67;;;;;20.51;77.53;100325.16;5064561;28;45429;-96
2022/05/31 08:01:16;;;;;;;;;4.00;3.33;;;;;20.56;76.59;100371.38;5079834;28;44910;-96
2022/05/31 08:03:42;;;;;;;;;3.00;3.00;;;;;20.62;76.41;100391.75;5087767;28;45720;-96
2022/05/31 08:06:13;;;;;;;;;4.00;3.00;;;;;20.64;76.33;100392.66;5083029;28;45300;-96
2022/05/31 08:08:39;;;;;;;;;4.00;3.00;;;;;20.75;76.07;100397.94;5085130;28;45587;-93
2022/05/31 08:11:16;;;;;;;;;3.00;3.00;;;;;20.76;76.16;100407.75;5067448;28;45365;-95
2022/05/31 08:13:43;;;;;;;;;5.00;2.00;;;;;20.76;76.16;100416.63;5083620;28;46301;-96
2022/05/31 08:16:10;;;;;;;;;3.00;3.00;;;;;20.79;75.97;100415.75;5088883;28;45341;-95
2022/05/31 08:18:37;;;;;;;;;5.00;3.00;;;;;20.83;75.69;100424.59;5089975;28;45235;-96
2022/05/31 08:21:07;;;;;;;;;2.00;2.00;;;;;20.94;75.12;100453.94;5088598;28;45252;-96
2022/05/31 08:23:33;;;;;;;;;6.00;4.00;;;;;21.01;75.84;100434.38;5078411;28;45554;-92
2022/05/31 08:25:59;;;;;;;;;2.33;2.33;;;;;21.03;75.72;100445.06;5073795;28;45714;-92
2022/05/31 08:28:25;;;;;;;;;2.33;2.33;;;;;21.08;75.70;100428.13;5077842;28;45400;-93
2022/05/31 08:30:56;;;;;;;;;2.67;2.67;;;;;21.13;74.77;100473.47;5087072;28;45424;-88
2022/05/31 08:33:21;;;;;;;;;3.33;3.00;;;;;21.19;74.83;100457.44;5070473;28;47575;-93
2022/05/31 08:35:47;;;;;;;;;3.00;3.00;;;;;21.27;74.11;100483.22;5093092;28;45472;-87
2022/05/31 08:38:15;;;;;;;;;3.00;3.00;;;;;21.32;74.48;100497.44;5064802;28;45467;-90
2022/05/31 08:41:07;;;;;;;;;4.33;2.00;;;;;21.45;74.41;100495.59;5061917;28;44865;-90
2022/05/31 08:43:44;;;;;;;;;2.00;2.00;;;;;21.58;73.95;100508.91;5073340;28;45432;-91
2022/05/31 08:46:15;;;;;;;;;4.00;3.00;;;;;;;;5084858;28;44847;-88
2022/05/31 08:48:56;;;;;;;;;3.33;3.00;;;;;21.82;73.57;100536.38;5046003;28;45593;-87
2022/05/31 08:51:55;;;;;;;;;2.33;2.33;;;;;21.91;73.74;100536.38;5085140;28;45434;-94
2022/05/31 08:57:36;;;;;;;;;3.33;2.00;;;;;22.20;73.00;100582.53;5077988;28;44776;-92
2022/05/31 09:00:02;;;;;;;;;4.67;2.33;;;;;22.29;72.50;100589.63;5064143;28;45491;-89
2022/05/31 09:02:37;;;;;;;;;3.00;3.00;;;;;22.36;72.19;100602.06;5063497;28;45426;-96
2022/05/31 09:05:12;;;;;;;;;2.33;2.00;;;;;22.45;71.35;100633.19;5066244;28;48816;-96
2022/05/31 09:07:47;;;;;;;;;3.00;2.00;;;;;22.51;71.63;100624.22;5068173;28;45708;-96
2022/05/31 09:10:19;;;;;;;;;4.00;2.00;;;;;22.63;70.75;100652.69;5081278;28;45616;-91
2022/05/31 09:12:57;;;;;;;;;2.00;2.00;;;;;22.80;69.85;100683.81;5087517;28;44851;-94
2022/05/31 09:15:32;;;;;;;;;2.33;2.33;;;;;23.00;69.22;100699.72;5082001;28;45647;-95
2022/05/31 09:18:31;;;;;;;;;4.00;3.00;;;;;23.16;68.80;100716.56;5067198;28;45434;-96
2022/05/31 09:21:01;;;;;;;;;3.00;2.00;;;;;23.24;68.91;100719.19;5082523;28;45162;-96
2022/05/31 09:23:32;;;;;;;;;2.00;2.00;;;;;23.32;68.87;100713.78;5095119;28;45278;-96
2022/05/31 09:28:57;;;;;;;;;2.33;1.67;;;;;23.54;67.25;100761.81;5137132;22;44955;-96
2022/05/31 09:31:34;;;;;;;;;3.00;3.00;;;;;23.63;67.68;100755.50;5400641;22;45486;-96
2022/05/31 09:36:50;;;;;;;;;2.00;2.00;;;;;23.65;66.49;100759.94;5630665;22;45145;-96
2022/05/31 09:39:48;;;;;;;;;2.00;2.00;;;;;23.84;66.34;100781.19;3404470;22;45970;31
2022/05/31 09:45:08;;;;;;;;;3.33;3.33;;;;;24.15;66.58;100768.34;5057095;22;44955;-95
2022/05/31 10:00:38;;;;;;;;;1.00;1.00;;;;;26.72;63.03;100836.97;5699385;22;46096;-95
2022/05/31 10:08:31;;;;;;;;;2.00;2.00;;;;;29.47;63.72;100842.38;5797620;22;46305;-94
2022/05/31 10:18:55;;;;;;;;;1.00;1.00;;;;;27.84;59.95;100889.25;5490994;22;45393;-96
2022/05/31 10:21:42;;;;;;;;;2.33;2.33;;;;;27.16;58.83;100876.41;5060080;28;44745;-94
2022/05/31 10:24:16;;;;;;;;;1.33;1.33;;;;;26.84;59.19;100884.25;5050967;28;45452;-96
2022/05/31 10:26:43;;;;;;;;;2.33;1.00;;;;;26.72;58.98;100889.91;5063062;28;44679;-96
2022/05/31 10:29:18;;;;;;;;;2.00;2.00;;;;;28.51;61.15;100869.53;5075207;28;45261;-96
2022/05/31 10:31:47;;;;;;;;;2.00;2.00;;;;;30.15;58.60;100892.47;5079119;28;44693;-96
2022/05/31 10:34:32;;;;;;;;;0.00;0.00;;;;;33.03;60.30;100881.81;5073219;28;45336;-96
2022/05/31 10:37:00;;;;;;;;;0.33;0.33;;;;;36.21;55.97;100908.50;5057957;28;45522;-96
2022/05/31 10:39:29;;;;;;;;;0.00;0.00;;;;;38.91;54.91;100917.34;5067571;27;45580;-96
2022/05/31 10:41:58;;;;;;;;;1.00;1.00;;;;;41.19;53.60;100921.94;5062489;28;45030;-96
2022/05/31 10:44:37;;;;;;;;;3.00;1.33;;;;;43.31;49.82;100928.53;5046595;28;45150;-96
2022/05/31 10:47:14;;;;;;;;;1.33;1.33;;;;;44.97;47.93;100931.38;5061068;28;44777;-95
2022/05/31 10:49:42;;;;;;;;;1.00;1.00;;;;;46.38;44.79;100933.75;5047425;28;46974;-95
2022/05/31 10:52:35;;;;;;;;;0.33;0.33;;;;;47.74;43.15;100943.25;5061662;28;45632;-96
2022/05/31 10:55:19;;;;;;;;;0.67;0.67;;;;;49.02;40.23;100948.41;5073372;28;45376;-96
2022/05/31 10:57:50;;;;;;;;;0.00;0.00;;;;;50.36;39.34;100947.34;5057355;28;45254;-93
2022/05/31 11:00:20;;;;;;;;;0.00;0.00;;;;;51.56;37.39;100937.03;5051713;28;46328;-95
2022/05/31 11:02:45;;;;;;;;;0.33;0.33;;;;;50.80;36.08;100934.44;5069315;28;45285;-95
2022/05/31 11:05:16;;;;;;;;;1.00;0.00;;;;;50.57;33.97;100931.78;5066723;28;45323;-96
2022/05/31 11:11:28;;;;;;;;;0.00;0.00;;;;;51.29;33.04;100939.53;5062570;28;45284;-96
2022/05/31 11:14:00;;;;;;;;;0.00;0.00;;;;;49.28;32.64;100948.06;5059515;28;45376;-95
2022/05/31 11:16:47;;;;;;;;;1.00;1.00;;;;;46.41;32.32;100930.66;5074035;28;45349;-96
2022/05/31 11:19:32;;;;;;;;;1.00;1.00;;;;;43.52;32.60;100931.22;5052914;28;45194;-96
2022/05/31 11:22:29;;;;;;;;;0.33;0.33;;;;;41.46;33.41;100937.16;5066902;28;45544;-96
2022/05/31 11:25:13;;;;;;;;;1.00;1.00;;;;;42.86;35.16;100939.03;5063526;28;45202;-96
2022/05/31 11:27:58;;;;;;;;;0.00;0.00;;;;;45.64;34.73;100927.41;5045907;28;45349;-96
2022/05/31 11:30:41;;;;;;;;;0.00;0.00;;;;;45.81;33.18;100933.16;5061954;28;45574;-96
2022/05/31 11:33:07;;;;;;;;;0.00;0.00;;;;;43.88;33.24;100938.94;5040197;28;46587;-96
2022/05/31 11:35:42;;;;;;;;;0.67;0.67;;;;;44.21;32.95;100941.41;5065315;28;45374;-96
2022/05/31 11:38:25;;;;;;;;;0.67;0.67;;;;;46.01;33.28;100932.06;5058407;28;45402;-96
2022/05/31 11:41:17;;;;;;;;;1.00;1.00;;;;;46.81;31.91;100943.16;5064053;28;45522;-96
2022/05/31 11:44:09;;;;;;;;;0.00;0.00;;;;;47.83;32.76;100946.06;5045291;28;47547;-96
2022/05/31 11:46:47;;;;;;;;;1.00;1.00;;;;;48.41;31.12;100956.22;5045235;28;45596;-96
2022/05/31 11:49:38;;;;;;;;;1.00;1.00;;;;;49.99;31.42;100945.25;5042860;28;45543;-96
2022/05/31 11:52:40;;;;;;;;;0.00;0.00;;;;;51.73;31.36;100945.13;5044821;28;45429;-96
2022/05/31 11:55:26;;;;;;;;;1.00;1.00;;;;;53.46;30.01;100941.94;5041033;28;47189;-96
2022/05/31 11:57:57;;;;;;;;;1.00;0.00;;;;;54.68;29.34;100950.28;5048925;28;45654;-95
2022/05/31 12:00:22;;;;;;;;;0.33;0.33;;;;;54.28;29.02;100949.28;5044360;28;45371;-96
2022/05/31 12:02:59;;;;;;;;;1.00;1.00;;;;;53.21;28.70;100943.41;5053846;28;45617;-96
2022/05/31 12:05:33;;;;;;;;;0.00;0.00;;;;;50.34;28.96;100943.88;5035825;28;46447;-96
2022/05/31 12:08:40;;;;;;;;;1.00;1.00;;;;;46.61;29.43;100938.75;5040200;28;45563;-95
2022/05/31 12:11:15;;;;;;;;;0.00;0.00;;;;;45.17;29.80;100937.69;4962979;28;45446;-96
2022/05/31 12:13:44;;;;;;;;;1.00;0.00;;;;;43.23;30.74;100932.00;4935905;28;45502;-96
2022/05/31 12:16:11;;;;;;;;;1.00;0.00;;;;;41.57;30.77;100930.69;4940430;28;47294;-96
2022/05/31 12:18:46;;;;;;;;;1.00;0.67;;;;;40.17;32.54;100935.47;4957816;28;45437;-96
2022/05/31 12:21:16;;;;;;;;;0.00;0.00;;;;;38.93;33.51;100926.31;4937205;28;45299;-96
2022/05/31 12:23:51;;;;;;;;;2.00;1.67;;;;;37.74;33.16;100938.09;4965407;28;45293;-96
2022/05/31 12:26:45;;;;;;;;;1.00;1.00;;;;;36.42;33.72;100940.97;4977094;28;46433;-96
2022/05/31 12:29:28;;;;;;;;;0.00;0.00;;;;;35.17;34.56;100946.31;4956471;28;45260;-96
2022/05/31 12:32:32;;;;;;;;;0.00;0.00;;;;;33.93;35.13;100930.97;4969098;28;45533;-96
2022/05/31 12:35:02;;;;;;;;;0.67;0.67;;;;;32.96;36.75;100935.59;4955351;28;44869;-96
2022/05/31 12:38:02;;;;;;;;;0.00;0.00;;;;;32.03;36.67;100944.13;4972899;28;46154;-96
2022/05/31 12:40:33;;;;;;;;;2.00;0.33;;;;;31.30;37.59;100941.56;4938825;28;45462;-96
2022/05/31 12:43:06;;;;;;;;;1.00;1.00;;;;;32.25;39.42;100935.94;4962210;28;45754;-96
2022/05/31 12:45:34;;;;;;;;;0.67;0.00;;;;;34.13;38.42;100931.78;4965603;28;44874;-95
2022/05/31 12:48:25;;;;;;;;;1.00;1.00;;;;;33.93;37.98;100932.81;5059855;28;46829;-95
2022/05/31 12:50:56;;;;;;;;;3.00;1.67;;;;;33.32;38.33;100940.22;5051870;28;44898;-96
2022/05/31 12:55:59;;;;;;;;;0.67;0.67;;;;;36.94;39.24;100910.44;5085841;27;46531;-96
2022/05/31 12:58:33;;;;;;;;;0.00;0.00;;;;;41.15;36.12;100926.84;5082188;28;45303;-96
2022/05/31 13:01:19;;;;;;;;;0.00;0.00;;;;;45.49;35.97;100929.03;5089848;28;45327;-96
2022/05/31 13:04:07;;;;;;;;;0.00;0.00;;;;;46.17;32.56;100921.09;5090376;28;45403;-95
2022/05/31 13:09:25;;;;;;;;;0.33;0.33;;;;;49.90;32.78;100916.56;5386416;22;45122;-96
2022/05/31 13:20:34;;;;;;;;;0.00;0.00;;;;;45.64;30.52;100924.66;5064941;28;44990;-96
2022/05/31 13:23:28;;;;;;;;;0.33;0.00;;;;;43.97;31.08;100930.78;5061975;28;45399;-96
2022/05/31 13:26:01;;;;;;;;;0.00;0.00;;;;;42.22;30.77;100926.19;5074424;27;45567;-96
2022/05/31 13:28:36;;;;;;;;;1.67;0.00;;;;;40.43;32.09;100918.81;5051694;28;45306;-94
2022/05/31 13:31:09;;;;;;;;;0.67;0.67;;;;;38.96;32.19;100917.88;5035929;28;46448;-96
2022/05/31 13:33:34;;;;;;;;;1.00;1.00;;;;;37.63;32.43;100916.03;5064036;28;45407;-86
2022/05/31 13:36:08;;;;;;;;;0.67;0.00;;;;;38.13;33.83;100918.16;5054572;28;44721;-95
2022/05/31 13:38:36;;;;;;;;;1.00;1.00;;;;;41.20;34.13;100910.81;5063014;28;45345;-95
2022/05/31 13:41:04;;;;;;;;;0.00;0.00;;;;;42.86;32.89;100928.00;5057045;28;47001;-96
2022/05/31 13:43:36;;;;;;;;;0.00;0.00;;;;;42.06;31.73;100924.78;5062335;28;45379;-96